Time;durP1;ratioP1;P1;durP2;ratioP2;P2;SDS_P1;SDS_P2;PMS_P1;PMS_P2;Temp;Humidity;BMP_temperature;BMP_pressure;BME280_temperature;BME280_humidity;BME280_pressure;Samples;Min_cycle;Max_cycle;Signal;HPM_P1;HPM_P2
2022/07/22 00:02:25;;;;;;;0.40;0.30;;;19.70;99.90;;;;;;4932144;29;20431;-69
2022/07/22 00:04:50;;;;;;;0.40;0.40;;;19.70;99.90;;;;;;4933698;29;20383;-69
2022/07/22 00:07:16;;;;;;;0.50;0.50;;;19.60;99.90;;;;;;4935848;29;20864;-69
2022/07/22 00:09:42;;;;;;;0.40;0.20;;;19.50;99.90;;;;;;4936599;29;20387;-69
2022/07/22 00:12:08;;;;;;;0.40;0.30;;;19.40;99.90;;;;;;4935579;29;20429;-69
2022/07/22 00:14:34;;;;;;;0.40;0.40;;;19.40;99.90;;;;;;4936445;29;20384;-69
2022/07/22 00:17:00;;;;;;;0.40;0.30;;;19.40;99.90;;;;;;4936666;29;20396;-69
2022/07/22 00:19:26;;;;;;;0.40;0.30;;;19.30;99.90;;;;;;4935577;29;20402;-69
2022/07/22 00:21:52;;;;;;;1.40;1.30;;;19.30;99.90;;;;;;4936161;29;20384;-69
2022/07/22 00:24:18;;;;;;;0.40;0.20;;;19.30;99.90;;;;;;4930240;29;20450;-69
2022/07/22 00:26:44;;;;;;;0.40;0.40;;;19.30;99.90;;;;;;4936065;29;20434;-69
2022/07/22 00:29:10;;;;;;;0.40;0.20;;;19.20;99.90;;;;;;4935272;29;20766;-69
2022/07/22 00:31:35;;;;;;;1.00;1.00;;;19.30;99.90;;;;;;4936398;29;20420;-69
2022/07/22 00:34:01;;;;;;;1.30;1.20;;;19.30;99.90;;;;;;4936164;29;20419;-69
2022/07/22 00:36:28;;;;;;;0.40;0.30;;;19.20;99.90;;;;;;4935197;29;20411;-69
2022/07/22 00:38:54;;;;;;;0.40;0.30;;;19.30;99.90;;;;;;4920852;29;20400;-69
2022/07/22 00:41:20;;;;;;;0.40;0.20;;;19.40;99.90;;;;;;4914893;29;20733;-69
2022/07/22 00:43:55;;;;;;;0.40;0.30;;;19.40;99.90;;;;;;4916852;29;20874;-69
2022/07/22 00:46:22;;;;;;;0.40;0.30;;;19.40;99.90;;;;;;4916114;29;20393;-69
2022/07/22 00:48:47;;;;;;;0.40;0.30;;;19.50;99.90;;;;;;4917063;29;20400;-69
2022/07/22 00:51:13;;;;;;;0.60;0.60;;;19.40;99.90;;;;;;4915762;29;20425;-69
2022/07/22 00:53:39;;;;;;;0.40;0.30;;;19.20;99.90;;;;;;4928636;29;20756;-69
2022/07/22 00:56:05;;;;;;;0.40;0.30;;;19.20;99.90;;;;;;4935538;29;20415;-69
2022/07/22 00:58:31;;;;;;;0.50;0.50;;;19.20;99.90;;;;;;4935119;29;20384;-69
2022/07/22 01:00:56;;;;;;;0.40;0.20;;;19.10;99.90;;;;;;4935574;29;20931;-69
2022/07/22 01:03:22;;;;;;;0.40;0.40;;;19.10;99.90;;;;;;4934498;29;20722;-69
2022/07/22 01:05:48;;;;;;;0.40;0.30;;;19.10;99.90;;;;;;4935475;29;20403;-69
2022/07/22 01:08:13;;;;;;;0.40;0.20;;;19.10;99.90;;;;;;4934767;29;20773;-69
2022/07/22 01:10:39;;;;;;;0.40;0.30;;;19.10;99.90;;;;;;4935397;29;20844;-69
2022/07/22 01:13:06;;;;;;;0.60;0.60;;;19.10;99.90;;;;;;4935253;29;20455;-69
2022/07/22 01:15:33;;;;;;;0.40;0.30;;;19.00;99.90;;;;;;4934802;29;20383;-69
2022/07/22 01:17:59;;;;;;;0.50;0.50;;;19.00;99.90;;;;;;4934564;29;20395;-69
2022/07/22 01:20:25;;;;;;;0.40;0.30;;;19.00;99.90;;;;;;4934509;29;20856;-69
2022/07/22 01:22:51;;;;;;;0.80;0.70;;;18.90;99.90;;;;;;4935358;29;20400;-69
2022/07/22 01:25:17;;;;;;;0.60;0.60;;;18.90;99.90;;;;;;4933948;29;20406;-69
2022/07/22 01:27:43;;;;;;;0.40;0.30;;;19.10;99.90;;;;;;4935168;29;20415;-69
2022/07/22 01:30:10;;;;;;;0.40;0.30;;;19.00;99.90;;;;;;4934390;29;20800;-69
2022/07/22 01:32:36;;;;;;;0.40;0.20;;;19.00;99.90;;;;;;4935008;29;20770;-69
2022/07/22 01:35:02;;;;;;;0.60;0.60;;;19.00;99.90;;;;;;4935023;29;20424;-69
2022/07/22 01:37:27;;;;;;;0.40;0.30;;;19.00;99.90;;;;;;4934211;29;20394;-69
2022/07/22 01:39:53;;;;;;;0.40;0.30;;;19.00;99.90;;;;;;4934873;29;20868;-69
2022/07/22 01:42:19;;;;;;;0.40;0.40;;;19.00;99.90;;;;;;4933697;29;20931;-69
2022/07/22 01:44:44;;;;;;;0.40;0.30;;;19.00;99.90;;;;;;4934886;29;20514;-69
2022/07/22 01:47:10;;;;;;;1.00;1.00;;;19.00;99.90;;;;;;4933980;29;20863;-69
2022/07/22 01:49:36;;;;;;;0.60;0.50;;;19.00;99.90;;;;;;4934784;29;20391;-69
2022/07/22 01:52:03;;;;;;;0.40;0.30;;;19.10;99.90;;;;;;4934158;29;20820;-69
2022/07/22 01:54:29;;;;;;;0.80;0.50;;;19.10;99.90;;;;;;4933190;29;20430;-69
2022/07/22 01:56:55;;;;;;;0.50;0.40;;;19.10;99.90;;;;;;4934904;29;20392;-69
2022/07/22 01:59:20;;;;;;;0.40;0.30;;;19.00;99.90;;;;;;4934032;29;20396;-69
2022/07/22 02:01:46;;;;;;;0.40;0.20;;;19.00;99.90;;;;;;4934149;29;20395;-69
2022/07/22 02:04:12;;;;;;;0.40;0.30;;;19.00;99.90;;;;;;4933772;29;20915;-69
2022/07/22 02:06:38;;;;;;;0.40;0.20;;;18.90;99.90;;;;;;4934494;29;20387;-69
2022/07/22 02:09:04;;;;;;;0.40;0.30;;;18.90;99.90;;;;;;4934425;29;20380;-69
2022/07/22 02:11:29;;;;;;;0.50;0.50;;;18.90;99.90;;;;;;4933345;29;20423;-68
2022/07/22 02:13:55;;;;;;;0.40;0.30;;;19.00;99.90;;;;;;4934354;29;20391;-69
2022/07/22 02:16:21;;;;;;;0.70;0.70;;;19.10;99.90;;;;;;4933211;29;20487;-69
2022/07/22 02:18:47;;;;;;;0.40;0.20;;;18.90;99.90;;;;;;4934458;29;20902;-69
2022/07/22 02:21:13;;;;;;;0.50;0.50;;;18.80;99.90;;;;;;4933424;29;20455;-69
2022/07/22 02:23:39;;;;;;;0.40;0.40;;;18.70;99.90;;;;;;4934163;29;20420;-69
2022/07/22 02:26:04;;;;;;;0.40;0.30;;;18.60;99.90;;;;;;4934007;29;20400;-68
2022/07/22 02:28:30;;;;;;;0.40;0.40;;;18.70;99.90;;;;;;4933080;29;20888;-69
2022/07/22 02:30:56;;;;;;;0.40;0.30;;;18.60;99.90;;;;;;4933643;29;20475;-69
2022/07/22 02:33:21;;;;;;;0.40;0.30;;;18.60;99.90;;;;;;4932935;29;20387;-69
2022/07/22 02:35:47;;;;;;;0.40;0.30;;;18.50;99.90;;;;;;4933870;29;20503;-69
2022/07/22 02:38:13;;;;;;;1.10;0.60;;;18.50;99.90;;;;;;4933695;29;20422;-69
2022/07/22 02:40:39;;;;;;;0.40;0.20;;;18.50;99.90;;;;;;4932596;29;20458;-69
2022/07/22 02:43:06;;;;;;;0.40;0.30;;;18.40;99.90;;;;;;4933874;29;20880;-69
2022/07/22 02:45:32;;;;;;;0.60;0.60;;;18.40;99.90;;;;;;4932937;29;20396;-69
2022/07/22 02:47:58;;;;;;;0.40;0.30;;;18.40;99.90;;;;;;4932329;29;20902;-68
2022/07/22 02:50:24;;;;;;;0.40;0.40;;;18.30;99.90;;;;;;4932964;29;20395;-69
2022/07/22 02:52:50;;;;;;;0.40;0.20;;;18.40;99.90;;;;;;4933503;29;20420;-69
2022/07/22 02:55:17;;;;;;;0.40;0.30;;;18.30;99.90;;;;;;4932745;29;20904;-69
2022/07/22 02:57:42;;;;;;;0.40;0.30;;;18.20;99.90;;;;;;4933499;29;20817;-69
2022/07/22 03:00:10;;;;;;;0.40;0.30;;;18.30;99.90;;;;;;4933318;29;20387;-69
2022/07/22 03:02:36;;;;;;;0.40;0.30;;;18.30;99.90;;;;;;4932575;29;20490;-69
2022/07/22 03:05:03;;;;;;;0.40;0.20;;;18.20;99.90;;;;;;4933305;29;20475;-69
2022/07/22 03:07:29;;;;;;;0.40;0.20;;;18.20;99.90;;;;;;4932641;29;20466;-69
2022/07/22 03:09:54;;;;;;;0.40;0.30;;;18.20;99.90;;;;;;4933274;29;20884;-70
2022/07/22 03:12:20;;;;;;;0.40;0.20;;;18.20;99.90;;;;;;4932556;29;20860;-69
2022/07/22 03:14:46;;;;;;;0.40;0.40;;;18.20;99.90;;;;;;4933422;29;20391;-69
2022/07/22 03:17:11;;;;;;;0.40;0.30;;;18.20;99.90;;;;;;4933336;29;20387;-69
2022/07/22 03:19:37;;;;;;;0.40;0.22;;;18.10;99.90;;;;;;4932406;29;20413;-69
2022/07/22 03:22:03;;;;;;;0.90;0.90;;;18.20;99.90;;;;;;4933067;29;20896;-69
2022/07/22 03:24:28;;;;;;;0.40;0.30;;;18.10;99.90;;;;;;4932671;29;20514;-69
2022/07/22 03:26:54;;;;;;;0.50;0.50;;;18.10;99.90;;;;;;4933163;29;20883;-69
2022/07/22 03:29:20;;;;;;;0.40;0.40;;;18.10;99.90;;;;;;4931226;29;20400;-69
2022/07/22 03:31:45;;;;;;;0.40;0.30;;;18.10;99.90;;;;;;4933181;29;20446;-69
2022/07/22 03:34:11;;;;;;;0.40;0.20;;;18.10;99.90;;;;;;4933641;29;20395;-69
2022/07/22 03:36:37;;;;;;;0.40;0.30;;;18.00;99.90;;;;;;4932720;29;20380;-69
2022/07/22 03:39:03;;;;;;;0.40;0.30;;;17.90;99.90;;;;;;4933527;29;20395;-69
2022/07/22 03:41:28;;;;;;;0.40;0.30;;;17.80;99.90;;;;;;4936148;29;20438;-69
2022/07/22 03:43:54;;;;;;;0.40;0.30;;;17.90;99.90;;;;;;4920289;29;20435;-69
2022/07/22 03:46:20;;;;;;;0.40;0.20;;;17.80;99.90;;;;;;4936327;29;20403;-69
2022/07/22 03:48:45;;;;;;;2.40;0.80;;;17.80;99.90;;;;;;4937244;29;20391;-69
2022/07/22 03:51:11;;;;;;;0.40;0.30;;;17.80;99.90;;;;;;4937209;29;20392;-69
2022/07/22 03:53:37;;;;;;;0.60;0.50;;;17.80;99.90;;;;;;4936059;29;20384;-69
2022/07/22 03:56:03;;;;;;;0.70;0.70;;;17.70;99.90;;;;;;4936674;29;20420;-69
2022/07/22 03:58:29;;;;;;;0.40;0.20;;;17.80;99.90;;;;;;4936204;29;20680;-69
2022/07/22 04:00:54;;;;;;;0.40;0.30;;;17.70;99.90;;;;;;4937104;29;20391;-70
2022/07/22 04:03:21;;;;;;;0.80;0.50;;;17.70;99.90;;;;;;4936080;29;20392;-69
2022/07/22 04:05:46;;;;;;;0.40;0.30;;;17.70;99.90;;;;;;4937235;29;20391;-69
2022/07/22 04:08:13;;;;;;;0.70;0.70;;;17.80;99.90;;;;;;4936844;29;20384;-69
2022/07/22 04:10:39;;;;;;;0.40;0.20;;;17.90;99.90;;;;;;4936389;29;20458;-69
2022/07/22 04:13:05;;;;;;;0.50;0.50;;;17.80;99.90;;;;;;4936356;29;21021;-68
2022/07/22 04:15:31;;;;;;;0.50;0.50;;;17.70;99.90;;;;;;4935863;29;20478;-69
2022/07/22 04:17:56;;;;;;;0.70;0.70;;;17.60;99.90;;;;;;4936653;29;20495;-69
2022/07/22 04:20:22;;;;;;;0.40;0.30;;;17.70;99.90;;;;;;4935611;29;20400;-69
2022/07/22 04:22:48;;;;;;;0.40;0.30;;;17.80;99.90;;;;;;4936569;29;20966;-69
2022/07/22 04:25:14;;;;;;;0.40;0.38;;;17.80;99.90;;;;;;4936307;29;20964;-70
2022/07/22 04:27:40;;;;;;;0.40;0.20;;;17.70;99.90;;;;;;4935729;29;20442;-70
2022/07/22 04:30:07;;;;;;;0.70;0.50;;;17.70;99.90;;;;;;4936544;29;20396;-68
2022/07/22 04:32:33;;;;;;;0.40;0.30;;;17.60;99.90;;;;;;4934875;29;20438;-69
2022/07/22 04:34:58;;;;;;;0.68;0.68;;;17.70;99.90;;;;;;4936236;29;20423;-69
2022/07/22 04:37:24;;;;;;;0.40;0.30;;;17.50;99.90;;;;;;4935276;29;21003;-69
2022/07/22 04:39:49;;;;;;;0.40;0.30;;;17.50;99.90;;;;;;4936385;29;20737;-69
2022/07/22 04:42:15;;;;;;;0.40;0.30;;;17.60;99.90;;;;;;4936194;29;20407;-69
2022/07/22 04:44:41;;;;;;;0.40;0.30;;;17.60;99.90;;;;;;4934606;29;20978;-70
2022/07/22 04:47:06;;;;;;;0.40;0.30;;;17.60;99.90;;;;;;4936174;29;20407;-69
2022/07/22 04:49:32;;;;;;;0.40;0.30;;;17.60;99.90;;;;;;4935271;29;20740;-69
2022/07/22 04:51:58;;;;;;;0.40;0.30;;;17.60;99.90;;;;;;4935893;29;20426;-69
2022/07/22 04:54:23;;;;;;;0.50;0.50;;;17.60;99.90;;;;;;4934853;29;20406;-69
2022/07/22 04:56:49;;;;;;;0.40;0.20;;;17.70;99.90;;;;;;4927843;29;20920;-69
2022/07/22 04:59:15;;;;;;;0.40;0.30;;;17.70;99.90;;;;;;4935552;29;20423;-69
2022/07/22 05:01:40;;;;;;;0.40;0.30;;;17.80;99.90;;;;;;4934730;29;20458;-69
2022/07/22 05:04:06;;;;;;;1.00;0.60;;;17.80;99.90;;;;;;4935541;29;20489;-69
2022/07/22 05:06:32;;;;;;;0.40;0.30;;;17.90;99.90;;;;;;4935005;29;20399;-69
2022/07/22 05:08:57;;;;;;;0.40;0.20;;;17.80;99.90;;;;;;4935501;29;20388;-69
2022/07/22 05:11:23;;;;;;;0.40;0.20;;;17.80;99.90;;;;;;4934931;29;20456;-69
2022/07/22 05:13:49;;;;;;;0.40;0.40;;;18.00;99.90;;;;;;4935997;29;20423;-69
2022/07/22 05:16:15;;;;;;;0.40;0.40;;;18.10;99.90;;;;;;4935258;29;20394;-69
2022/07/22 05:18:40;;;;;;;0.50;0.37;;;18.10;99.90;;;;;;4927657;29;20935;-69
2022/07/22 05:21:06;;;;;;;0.40;0.30;;;18.20;99.90;;;;;;4932504;29;20460;-69
2022/07/22 05:23:32;;;;;;;2.00;1.00;;;18.20;99.90;;;;;;4946490;29;20500;-69
2022/07/22 05:25:58;;;;;;;0.40;0.30;;;18.30;99.90;;;;;;4934872;29;20421;-69
2022/07/22 05:28:24;;;;;;;0.40;0.30;;;18.30;99.90;;;;;;4934661;29;20491;-69
2022/07/22 05:30:50;;;;;;;0.40;0.30;;;18.50;99.90;;;;;;4935345;29;20402;-69
2022/07/22 05:33:16;;;;;;;0.40;0.30;;;18.70;99.90;;;;;;4934773;29;20423;-69
2022/07/22 05:35:41;;;;;;;0.40;0.30;;;18.70;99.90;;;;;;4930231;29;20477;-68
2022/07/22 05:38:07;;;;;;;0.40;0.40;;;18.90;99.90;;;;;;4934108;29;20404;-69
2022/07/22 05:40:33;;;;;;;0.40;0.30;;;19.00;99.90;;;;;;4931579;29;20413;-68
2022/07/22 05:42:59;;;;;;;2.30;1.70;;;19.10;99.90;;;;;;4934852;29;20422;-68
2022/07/22 05:45:24;;;;;;;0.40;0.40;;;19.20;99.90;;;;;;4934888;29;20865;-68
2022/07/22 05:47:50;;;;;;;0.40;0.30;;;19.20;99.90;;;;;;4934596;29;20392;-68
2022/07/22 05:50:16;;;;;;;0.40;0.30;;;19.20;99.90;;;;;;4917997;29;20402;-68
2022/07/22 05:52:42;;;;;;;0.50;0.50;;;19.10;99.90;;;;;;4928352;29;20411;-68
2022/07/22 05:55:09;;;;;;;0.50;0.50;;;19.20;99.90;;;;;;4934450;29;20411;-68
2022/07/22 05:57:36;;;;;;;0.40;0.20;;;19.30;99.90;;;;;;4932809;29;20396;-69
2022/07/22 06:00:03;;;;;;;0.50;0.50;;;19.30;99.90;;;;;;4934662;29;20395;-69
2022/07/22 06:02:29;;;;;;;0.50;0.50;;;19.30;99.90;;;;;;4933504;29;20451;-68
2022/07/22 06:04:54;;;;;;;0.40;0.30;;;19.20;99.90;;;;;;4917284;29;20900;-68
2022/07/22 06:07:20;;;;;;;0.40;0.30;;;19.40;99.90;;;;;;4934631;29;20411;-68
2022/07/22 06:09:46;;;;;;;0.60;0.60;;;19.50;99.90;;;;;;4916502;29;21109;-68
2022/07/22 06:12:12;;;;;;;1.50;1.40;;;19.40;99.90;;;;;;4934616;29;20419;-68
2022/07/22 06:14:37;;;;;;;0.40;0.40;;;19.40;99.90;;;;;;4933718;29;20399;-68
2022/07/22 06:17:03;;;;;;;0.40;0.20;;;19.50;99.90;;;;;;4934482;29;20483;-68
2022/07/22 06:19:29;;;;;;;0.40;0.30;;;19.50;99.90;;;;;;4932055;29;20892;-68
2022/07/22 06:21:56;;;;;;;0.40;0.20;;;19.50;99.90;;;;;;4934289;29;20470;-68
2022/07/22 06:24:21;;;;;;;1.00;1.00;;;19.50;99.90;;;;;;4933515;29;20956;-68
2022/07/22 06:26:47;;;;;;;0.98;0.95;;;19.70;99.90;;;;;;4933589;29;20388;-68
2022/07/22 06:29:15;;;;;;;0.40;0.20;;;19.70;99.90;;;;;;4934073;29;20876;-68
2022/07/22 06:31:40;;;;;;;0.40;0.30;;;19.80;99.90;;;;;;4933504;29;20447;-67
2022/07/22 06:34:06;;;;;;;0.60;0.60;;;19.80;99.90;;;;;;4934191;29;20902;-68
2022/07/22 06:36:32;;;;;;;0.50;0.45;;;19.80;99.90;;;;;;4933268;29;20392;-68
2022/07/22 06:38:58;;;;;;;0.40;0.20;;;19.90;99.90;;;;;;4934136;29;20392;-69
2022/07/22 06:41:24;;;;;;;0.40;0.40;;;20.00;99.90;;;;;;4933979;29;20749;-69
2022/07/22 06:43:50;;;;;;;0.40;0.32;;;20.00;99.90;;;;;;4933714;29;20386;-68
2022/07/22 06:46:16;;;;;;;0.63;0.63;;;20.10;99.90;;;;;;4933957;29;20395;-69
2022/07/22 06:48:42;;;;;;;2.30;1.10;;;20.20;99.90;;;;;;4933282;29;20491;-69
2022/07/22 06:51:08;;;;;;;0.40;0.30;;;20.20;99.90;;;;;;4934009;29;20745;-70
2022/07/22 06:53:34;;;;;;;0.40;0.20;;;20.30;99.90;;;;;;4916014;29;20405;-69
2022/07/22 06:56:00;;;;;;;0.40;0.30;;;20.20;99.90;;;;;;4933432;29;20490;-72
2022/07/22 06:58:25;;;;;;;0.40;0.30;;;20.40;99.90;;;;;;4933478;29;20842;-72
2022/07/22 07:00:51;;;;;;;0.40;0.40;;;20.40;99.90;;;;;;4932591;29;20406;-71
2022/07/22 07:03:17;;;;;;;0.50;0.50;;;20.40;99.90;;;;;;4933073;29;20460;-71
2022/07/22 07:05:42;;;;;;;0.50;0.50;;;20.50;99.90;;;;;;4932358;29;20404;-71
2022/07/22 07:08:08;;;;;;;0.40;0.30;;;20.60;99.90;;;;;;4932616;29;21104;-71
2022/07/22 07:10:34;;;;;;;0.40;0.40;;;20.70;99.90;;;;;;4932374;29;20447;-71
2022/07/22 07:13:00;;;;;;;0.40;0.30;;;20.70;99.90;;;;;;4933623;29;20415;-72
2022/07/22 07:15:26;;;;;;;0.43;0.32;;;20.60;99.90;;;;;;4937425;29;20419;-68
2022/07/22 07:17:53;;;;;;;0.40;0.20;;;20.70;99.90;;;;;;4932513;29;20498;-68
2022/07/22 07:20:19;;;;;;;0.47;0.40;;;20.80;99.90;;;;;;4932578;29;20922;-68
2022/07/22 07:22:45;;;;;;;0.40;0.30;;;20.90;99.90;;;;;;4942678;29;20446;-69
2022/07/22 07:25:11;;;;;;;0.40;0.30;;;20.90;99.90;;;;;;4936020;29;20411;-68
2022/07/22 07:27:36;;;;;;;0.50;0.50;;;20.90;99.90;;;;;;4931158;29;20478;-68
2022/07/22 07:30:06;;;;;;;1.40;0.67;;;21.00;99.90;;;;;;4930827;29;20951;-67
2022/07/22 07:32:32;;;;;;;0.40;0.30;;;21.10;99.90;;;;;;4931324;29;20420;-67
2022/07/22 07:34:57;;;;;;;0.40;0.30;;;21.10;99.90;;;;;;4933299;29;20408;-68
2022/07/22 07:37:23;;;;;;;0.40;0.30;;;21.20;99.90;;;;;;4933528;29;20403;-67
2022/07/22 07:39:49;;;;;;;0.40;0.40;;;21.30;99.90;;;;;;4910623;29;20411;-68
2022/07/22 07:42:14;;;;;;;0.40;0.40;;;21.30;99.90;;;;;;4947354;29;20398;-69
2022/07/22 07:44:41;;;;;;;0.70;0.70;;;21.30;99.90;;;;;;4950574;29;20385;-69
2022/07/22 07:47:06;;;;;;;0.60;0.60;;;21.40;99.90;;;;;;4932880;29;20406;-68
2022/07/22 07:49:32;;;;;;;0.40;0.40;;;21.50;99.90;;;;;;4932344;29;20388;-69
2022/07/22 07:51:58;;;;;;;0.40;0.30;;;21.60;99.90;;;;;;4932417;29;20531;-69
2022/07/22 07:54:24;;;;;;;0.40;0.30;;;21.70;99.90;;;;;;4944210;29;20413;-69
2022/07/22 07:56:50;;;;;;;0.50;0.40;;;21.70;99.90;;;;;;4950220;29;21024;-69
2022/07/22 07:59:16;;;;;;;0.40;0.40;;;21.50;99.90;;;;;;4934142;29;20415;-68
2022/07/22 08:01:43;;;;;;;0.50;0.40;;;21.60;99.90;;;;;;4931794;29;20426;-67
2022/07/22 08:04:08;;;;;;;0.40;0.20;;;21.50;99.90;;;;;;4932643;29;20938;-68
2022/07/22 08:06:34;;;;;;;0.40;0.30;;;21.60;99.90;;;;;;4932362;29;20396;-68
2022/07/22 08:09:00;;;;;;;0.40;0.30;;;21.90;99.90;;;;;;4932640;29;20880;-68
2022/07/22 08:11:26;;;;;;;0.43;0.27;;;22.00;99.90;;;;;;4933017;29;20423;-67
2022/07/22 08:13:52;;;;;;;0.40;0.30;;;22.00;99.90;;;;;;4931848;29;20387;-68
2022/07/22 08:16:17;;;;;;;0.50;0.50;;;22.00;99.90;;;;;;4932127;29;20434;-67
2022/07/22 08:18:43;;;;;;;0.40;0.20;;;22.00;99.90;;;;;;4932307;29;20419;-67
2022/07/22 08:21:09;;;;;;;0.40;0.30;;;22.10;99.90;;;;;;4933027;29;20423;-68
2022/07/22 08:23:35;;;;;;;0.40;0.30;;;22.20;99.90;;;;;;4931689;29;20383;-68
2022/07/22 08:26:00;;;;;;;0.40;0.20;;;22.20;99.90;;;;;;4933470;29;20474;-67
2022/07/22 08:28:27;;;;;;;0.40;0.30;;;22.30;99.90;;;;;;4935547;29;20431;-68
2022/07/22 08:30:53;;;;;;;0.40;0.40;;;22.20;99.90;;;;;;4935277;29;20564;-68
2022/07/22 08:33:19;;;;;;;0.40;0.20;;;22.30;99.90;;;;;;4935454;29;20975;-68
2022/07/22 08:35:45;;;;;;;0.70;0.68;;;22.40;99.90;;;;;;4934616;29;20404;-68
2022/07/22 08:38:11;;;;;;;0.40;0.30;;;22.40;99.90;;;;;;4935337;29;20406;-68
2022/07/22 08:40:37;;;;;;;1.20;1.10;;;22.30;99.90;;;;;;4934636;29;20408;-68
2022/07/22 08:43:03;;;;;;;0.40;0.30;;;22.40;99.90;;;;;;4935893;29;20749;-68
2022/07/22 08:45:31;;;;;;;0.40;0.30;;;22.50;99.90;;;;;;4935565;29;20407;-68
2022/07/22 08:47:59;;;;;;;0.40;0.30;;;22.70;99.90;;;;;;4935627;29;20500;-68
2022/07/22 08:50:25;;;;;;;0.40;0.30;;;22.80;99.90;;;;;;4935918;29;20426;-68
2022/07/22 08:52:51;;;;;;;0.40;0.30;;;22.90;99.90;;;;;;4934788;29;20419;-68
2022/07/22 08:55:17;;;;;;;0.40;0.30;;;22.90;99.90;;;;;;4935226;29;20427;-69
2022/07/22 08:57:46;;;;;;;0.70;0.60;;;22.90;99.90;;;;;;4934817;29;20523;-69
2022/07/22 09:00:18;;;;;;;0.40;0.30;;;23.10;99.90;;;;;;4935364;29;20411;-69
2022/07/22 09:02:45;;;;;;;0.40;0.40;;;23.00;99.90;;;;;;4934502;29;20391;-69
2022/07/22 09:05:13;;;;;;;0.40;0.20;;;23.20;99.90;;;;;;4934822;29;20403;-69
2022/07/22 09:07:41;;;;;;;0.47;0.45;;;23.10;99.90;;;;;;4915600;29;20886;-69
2022/07/22 09:10:14;;;;;;;0.57;0.55;;;23.20;99.90;;;;;;4929500;29;20417;-68
2022/07/22 09:12:58;;;;;;;0.40;0.30;;;23.40;99.90;;;;;;4953643;29;21033;-69
2022/07/22 09:15:29;;;;;;;0.40;0.38;;;23.70;99.90;;;;;;4954877;29;20389;-68
2022/07/22 09:17:56;;;;;;;0.40;0.20;;;23.70;99.90;;;;;;4953354;29;20386;-69
2022/07/22 09:20:22;;;;;;;0.40;0.30;;;23.80;99.90;;;;;;4953742;29;21186;-68
2022/07/22 09:22:49;;;;;;;0.40;0.30;;;23.90;99.90;;;;;;4953496;29;20394;-69
2022/07/22 09:25:32;;;;;;;0.43;0.32;;;23.90;99.90;;;;;;4954505;29;20398;-68
2022/07/22 09:28:07;;;;;;;0.40;0.30;;;23.90;99.90;;;;;;4953555;29;20419;-69
2022/07/22 09:30:47;;;;;;;0.52;0.52;;;23.70;99.90;;;;;;4954258;29;20394;-69
2022/07/22 09:33:14;;;;;;;0.40;0.30;;;23.90;99.90;;;;;;4954356;29;20417;-69
2022/07/22 09:35:39;;;;;;;0.40;0.20;;;24.00;99.90;;;;;;4953509;29;20810;-69
2022/07/22 09:38:08;;;;;;;0.40;0.30;;;24.10;99.90;;;;;;4953057;28;20395;-69
2022/07/22 09:40:42;;;;;;;0.40;0.30;;;24.10;99.90;;;;;;4953861;29;20394;-68
2022/07/22 09:43:14;;;;;;;0.40;0.30;;;24.30;99.90;;;;;;4954090;29;20390;-69
2022/07/22 09:45:53;;;;;;;0.40;0.30;;;24.30;99.90;;;;;;4953508;29;20874;-69
2022/07/22 09:48:21;;;;;;;0.40;0.30;;;24.40;99.90;;;;;;4953687;29;20448;-68
2022/07/22 09:50:48;;;;;;;0.40;0.20;;;24.60;99.90;;;;;;4953195;29;20398;-69
2022/07/22 09:53:15;;;;;;;0.60;0.60;;;24.60;99.90;;;;;;4953917;29;20454;-69
2022/07/22 09:55:41;;;;;;;0.50;0.50;;;24.70;99.90;;;;;;4952645;29;20418;-69
2022/07/22 09:58:07;;;;;;;0.60;0.60;;;24.90;99.90;;;;;;4947490;29;20404;-68
2022/07/22 10:00:34;;;;;;;0.40;0.20;;;24.90;99.90;;;;;;4934538;29;20741;-69
2022/07/22 10:03:02;;;;;;;0.90;0.90;;;24.90;99.90;;;;;;4933881;29;20931;-69
2022/07/22 10:05:32;;;;;;;0.50;0.43;;;25.00;99.90;;;;;;4934639;29;20399;-68
2022/07/22 10:08:00;;;;;;;0.40;0.30;;;25.00;99.90;;;;;;4933264;29;20403;-69
2022/07/22 10:10:30;;;;;;;0.40;0.30;;;25.10;99.90;;;;;;4933853;29;20475;-69
2022/07/22 10:12:57;;;;;;;0.68;0.68;;;25.10;99.90;;;;;;4931399;29;20467;-69
2022/07/22 10:15:25;;;;;;;0.80;0.70;;;25.40;99.90;;;;;;4934096;29;20392;-69
2022/07/22 10:17:56;;;;;;;0.40;0.30;;;25.20;99.90;;;;;;4933363;29;20447;-69
2022/07/22 10:20:27;;;;;;;0.50;0.50;;;25.40;99.90;;;;;;4934546;29;20821;-69
2022/07/22 10:22:57;;;;;;;0.40;0.20;;;25.40;99.90;;;;;;4933095;29;20452;-69
2022/07/22 10:25:25;;;;;;;0.40;0.40;;;25.70;99.90;;;;;;4934012;29;20502;-70
2022/07/22 10:27:55;;;;;;;0.40;0.30;;;25.60;99.90;;;;;;4933258;29;20486;-69
2022/07/22 10:30:40;;;;;;;0.40;0.30;;;25.60;99.90;;;;;;4933731;29;20415;-69
2022/07/22 10:33:09;;;;;;;1.20;1.00;;;25.80;99.90;;;;;;4933057;29;20424;-69
2022/07/22 10:35:37;;;;;;;1.00;1.00;;;26.00;99.90;;;;;;4933756;29;20412;-69
2022/07/22 10:38:06;;;;;;;0.40;0.30;;;26.00;99.90;;;;;;4934425;29;20391;-69
2022/07/22 10:40:46;;;;;;;0.40;0.30;;;26.10;99.90;;;;;;4934191;29;20566;-69
2022/07/22 10:43:12;;;;;;;0.70;0.70;;;26.10;99.90;;;;;;4934175;29;20391;-69
2022/07/22 10:45:48;;;;;;;0.40;0.30;;;26.30;99.90;;;;;;4933416;29;20446;-69
2022/07/22 10:48:41;;;;;;;0.40;0.40;;;26.40;99.90;;;;;;4933856;29;20391;-69
2022/07/22 10:51:07;;;;;;;0.40;0.30;;;26.30;99.90;;;;;;4920096;29;20892;-69
2022/07/22 10:53:53;;;;;;;0.50;0.50;;;26.30;99.90;;;;;;4933701;29;20475;-69
2022/07/22 10:56:25;;;;;;;0.40;0.30;;;26.50;99.90;;;;;;4933563;29;20423;-69
2022/07/22 10:58:56;;;;;;;0.40;0.30;;;26.50;99.90;;;;;;4933039;29;20907;-69
2022/07/22 11:01:26;;;;;;;0.40;0.30;;;26.50;99.90;;;;;;4933840;29;20422;-70
2022/07/22 11:03:52;;;;;;;0.40;0.20;;;26.80;99.90;;;;;;4932921;29;20752;-69
2022/07/22 11:06:28;;;;;;;2.30;1.00;;;26.90;99.90;;;;;;4933735;29;20391;-69
2022/07/22 11:09:00;;;;;;;0.40;0.40;;;26.80;99.80;;;;;;4932975;29;20392;-68
2022/07/22 11:11:32;;;;;;;1.30;1.20;;;26.80;99.70;;;;;;4933815;29;20387;-69
2022/07/22 11:13:58;;;;;;;0.63;0.60;;;26.80;99.50;;;;;;4933102;29;21157;-69
2022/07/22 11:16:26;;;;;;;0.40;0.30;;;27.00;99.50;;;;;;4933665;29;20931;-70
2022/07/22 11:18:58;;;;;;;0.40;0.30;;;26.90;98.30;;;;;;4932977;29;20490;-69
2022/07/22 11:21:27;;;;;;;0.40;0.30;;;27.00;98.60;;;;;;4927725;29;20406;-70
2022/07/22 11:23:56;;;;;;;0.40;0.30;;;27.20;98.80;;;;;;4913818;29;20763;-70
2022/07/22 11:26:44;;;;;;;0.40;0.30;;;27.40;96.20;;;;;;4914412;29;20870;-70
2022/07/22 11:29:15;;;;;;;0.40;0.30;;;28.00;96.00;;;;;;4914573;29;20393;-71
2022/07/22 11:31:40;;;;;;;0.40;0.30;;;28.20;94.20;;;;;;4914158;29;20429;-69
2022/07/22 11:34:12;;;;;;;0.80;0.80;;;28.20;93.50;;;;;;4914083;29;20427;-69
2022/07/22 11:36:41;;;;;;;0.40;0.28;;;28.20;93.80;;;;;;4914380;29;20779;-70
2022/07/22 11:39:08;;;;;;;0.57;0.37;;;28.00;92.60;;;;;;4913966;29;20393;-70
2022/07/22 11:41:35;;;;;;;0.40;0.30;;;28.40;93.00;;;;;;4913035;29;20878;-70
2022/07/22 11:44:01;;;;;;;0.50;0.40;;;28.60;92.10;;;;;;4913475;29;20471;-70
2022/07/22 11:46:28;;;;;;;0.43;0.32;;;29.30;90.60;;;;;;4914151;29;20393;-70
2022/07/22 11:48:56;;;;;;;0.50;0.50;;;29.80;88.70;;;;;;4913488;29;20408;-70
2022/07/22 11:51:31;;;;;;;0.50;0.40;;;30.00;87.40;;;;;;4914215;29;20472;-71
2022/07/22 11:53:57;;;;;;;0.40;0.20;;;30.50;81.80;;;;;;4913427;29;20803;-70
2022/07/22 11:56:24;;;;;;;0.40;0.20;;;30.90;80.90;;;;;;4913954;29;20747;-70
2022/07/22 11:58:54;;;;;;;0.40;0.20;;;30.20;83.70;;;;;;4913403;29;20484;-70
2022/07/22 12:01:21;;;;;;;0.40;0.38;;;31.00;87.20;;;;;;4916159;29;20469;-70
2022/07/22 12:03:52;;;;;;;0.40;0.20;;;30.50;83.20;;;;;;4936259;29;20416;-68
2022/07/22 12:06:20;;;;;;;0.40;0.20;;;31.00;83.50;;;;;;4937056;29;20423;-67
2022/07/22 12:09:02;;;;;;;0.40;0.20;;;32.10;76.00;;;;;;4936008;29;20482;-71
2022/07/22 12:11:28;;;;;;;0.40;0.20;;;31.20;78.40;;;;;;4936594;29;20396;-69
2022/07/22 12:13:54;;;;;;;0.40;0.30;;;32.10;78.00;;;;;;4935870;29;20395;-69
2022/07/22 12:16:20;;;;;;;0.40;0.20;;;31.00;75.40;;;;;;4936773;29;20395;-69
2022/07/22 12:18:55;;;;;;;0.40;0.20;;;31.90;77.30;;;;;;4935812;29;20880;-67
2022/07/22 12:21:22;;;;;;;0.50;0.50;;;31.50;75.20;;;;;;4936697;29;20784;-68
2022/07/22 12:24:14;;;;;;;0.60;0.40;;;31.60;77.50;;;;;;4935682;29;20411;-69
2022/07/22 12:26:45;;;;;;;0.40;0.20;;;30.90;80.70;;;;;;4932534;29;20498;-68
2022/07/22 12:29:49;;;;;;;0.40;0.20;;;31.70;78.50;;;;;;4936441;29;20395;-69
2022/07/22 12:32:28;;;;;;;0.40;0.20;;;32.60;73.60;;;;;;4934202;29;20777;-70
2022/07/22 12:34:53;;;;;;;0.40;0.20;;;32.80;73.70;;;;;;4935234;29;20400;-70
2022/07/22 12:37:51;;;;;;;0.40;0.20;;;33.00;71.60;;;;;;4934693;29;20410;-69
2022/07/22 12:40:18;;;;;;;0.40;0.20;;;31.70;72.80;;;;;;4908317;29;20423;-70
2022/07/22 12:42:47;;;;;;;0.40;0.20;;;32.10;75.20;;;;;;4935312;29;20761;-69
2022/07/22 12:45:15;;;;;;;0.40;0.20;;;32.60;71.20;;;;;;4934536;29;20440;-70
2022/07/22 12:47:56;;;;;;;0.40;0.20;;;32.50;74.20;;;;;;4934915;29;20417;-69
2022/07/22 12:50:26;;;;;;;0.40;0.20;;;33.10;72.20;;;;;;4935403;29;20404;-70